Time;durP1;ratioP1;P1;durP2;ratioP2;P2;SDS_P1;SDS_P2;PMS_P1;PMS_P2;Temp;Humidity;BMP_temperature;BMP_pressure;BME280_temperature;BME280_humidity;BME280_pressure;Samples;Min_cycle;Max_cycle;Signal;HPM_P1;HPM_P2
2022/04/09 00:00:15;;;;;;;9.70;2.03;;;;;;;;;;4921057;29;20111;-68
2022/04/09 00:02:41;;;;;;;16.70;2.10;;;;;;;;;;4920553;29;20055;-68
2022/04/09 00:05:09;;;;;;;9.85;2.53;;;;;;;;;;4919551;29;20399;-68
2022/04/09 00:07:35;;;;;;;8.57;2.28;;;;;;;;;;4920762;29;20052;-68
2022/04/09 00:10:01;;;;;;;7.93;2.08;;;;;;;;;;4920564;29;20439;-68
2022/04/09 00:12:27;;;;;;;12.40;1.90;;;;;;;;;;4917061;29;20044;-68
2022/04/09 00:14:53;;;;;;;14.45;2.00;;;;;;;;;;4918337;29;20131;-68
2022/04/09 00:17:19;;;;;;;9.90;1.50;;;;;;;;;;4900584;29;20044;-68
2022/04/09 00:19:45;;;;;;;9.25;1.80;;;;;;;;;;4900897;29;20056;-68
2022/04/09 00:22:11;;;;;;;9.18;1.90;;;;;;;;;;4918182;29;20044;-68
2022/04/09 00:24:38;;;;;;;9.75;2.03;;;;;;;;;;4915702;29;20086;-68
2022/04/09 00:27:04;;;;;;;9.05;2.50;;;;;;;;;;4932056;29;20052;-68
2022/04/09 00:29:30;;;;;;;7.45;1.92;;;;;;;;;;4967462;28;20043;-68
2022/04/09 00:31:56;;;;;;;9.85;1.83;;;;;;;;;;4966818;28;20040;-68
2022/04/09 00:34:22;;;;;;;5.07;1.45;;;;;;;;;;4936693;29;20040;-68
2022/04/09 00:36:48;;;;;;;6.80;1.60;;;;;;;;;;4936637;29;20040;-68
2022/04/09 00:39:14;;;;;;;10.57;2.08;;;;;;;;;;4936024;29;20075;-68
2022/04/09 00:41:41;;;;;;;6.40;1.73;;;;;;;;;;4936771;29;20096;-68
2022/04/09 00:44:20;;;;;;;6.18;1.40;;;;;;;;;;4934994;29;20410;-68
2022/04/09 00:46:46;;;;;;;7.88;1.70;;;;;;;;;;4935839;29;20055;-68
2022/04/09 00:49:13;;;;;;;9.18;2.10;;;;;;;;;;4967424;28;20095;-68
2022/04/09 00:51:43;;;;;;;4.13;1.38;;;;;;;;;;4935212;29;20131;-68
2022/04/09 00:54:11;;;;;;;9.00;2.03;;;;;;;;;;4966416;28;20062;-68
2022/04/09 00:56:38;;;;;;;7.55;2.30;;;;;;;;;;4935190;29;20056;-68
2022/04/09 00:59:06;;;;;;;8.18;1.65;;;;;;;;;;4967128;28;20047;-68
2022/04/09 01:01:35;;;;;;;12.23;2.38;;;;;;;;;;4950064;28;20160;-68
2022/04/09 01:04:05;;;;;;;16.65;2.17;;;;;;;;;;4967177;28;20058;-68
2022/04/09 01:06:33;;;;;;;9.50;2.03;;;;;;;;;;4966942;28;20075;-68
2022/04/09 01:08:59;;;;;;;13.68;1.98;;;;;;;;;;4966166;28;20050;-68
2022/04/09 01:11:25;;;;;;;10.85;2.20;;;;;;;;;;4934823;29;20051;-68
2022/04/09 01:13:51;;;;;;;6.70;2.25;;;;;;;;;;4934722;29;20050;-68
2022/04/09 01:16:18;;;;;;;10.55;1.80;;;;;;;;;;4935109;29;20051;-68
2022/04/09 01:18:44;;;;;;;9.32;2.00;;;;;;;;;;4934458;29;20043;-68
2022/04/09 01:21:10;;;;;;;11.88;1.65;;;;;;;;;;4934810;29;20082;-68
2022/04/09 01:23:36;;;;;;;11.60;2.00;;;;;;;;;;4935057;29;20426;-68
2022/04/09 01:26:04;;;;;;;9.63;2.00;;;;;;;;;;4962788;28;20415;-68
2022/04/09 01:28:30;;;;;;;9.18;1.63;;;;;;;;;;4934162;29;20395;-68
2022/04/09 01:30:56;;;;;;;15.50;2.63;;;;;;;;;;4933861;29;20043;-68
2022/04/09 01:33:23;;;;;;;8.07;1.95;;;;;;;;;;4935784;29;20172;-68
2022/04/09 01:35:49;;;;;;;11.43;2.35;;;;;;;;;;4935478;29;20047;-68
2022/04/09 01:38:16;;;;;;;12.48;2.75;;;;;;;;;;4934989;29;20146;-68
2022/04/09 01:40:42;;;;;;;18.23;2.33;;;;;;;;;;4935630;29;20130;-68
2022/04/09 01:43:08;;;;;;;6.90;1.80;;;;;;;;;;4935597;29;20047;-68
2022/04/09 01:45:35;;;;;;;9.70;2.17;;;;;;;;;;4934800;29;20059;-68
2022/04/09 01:48:01;;;;;;;11.27;2.20;;;;;;;;;;4935485;29;20043;-68
2022/04/09 01:50:27;;;;;;;11.60;1.70;;;;;;;;;;4934234;29;20506;-68
2022/04/09 01:52:54;;;;;;;7.55;1.83;;;;;;;;;;4934734;29;20123;-68
2022/04/09 01:55:21;;;;;;;8.57;2.38;;;;;;;;;;4935064;29;20042;-68
2022/04/09 01:57:47;;;;;;;12.55;2.60;;;;;;;;;;4933750;29;20043;-68
2022/04/09 02:00:14;;;;;;;9.75;1.92;;;;;;;;;;4934251;29;20059;-68
2022/04/09 02:02:40;;;;;;;17.60;2.22;;;;;;;;;;4934944;29;20688;-68
2022/04/09 02:05:07;;;;;;;9.98;2.13;;;;;;;;;;4917827;29;20048;-68
2022/04/09 02:07:35;;;;;;;9.90;2.10;;;;;;;;;;4934494;29;20561;-68
2022/04/09 02:10:01;;;;;;;16.90;2.30;;;;;;;;;;4933737;29;20055;-68
2022/04/09 02:12:30;;;;;;;10.13;1.95;;;;;;;;;;4933953;29;20046;-68
2022/04/09 02:14:56;;;;;;;8.77;2.05;;;;;;;;;;4934155;29;20051;-68
2022/04/09 02:17:22;;;;;;;10.27;1.90;;;;;;;;;;4933276;29;20106;-68
2022/04/09 02:19:48;;;;;;;5.65;1.83;;;;;;;;;;4933664;29;20123;-68
2022/04/09 02:22:14;;;;;;;9.60;1.80;;;;;;;;;;4934320;29;20039;-68
2022/04/09 02:24:41;;;;;;;8.85;1.52;;;;;;;;;;4934777;29;20575;-68
2022/04/09 02:27:07;;;;;;;7.70;1.48;;;;;;;;;;4934722;29;20035;-68
2022/04/09 02:29:33;;;;;;;5.85;1.38;;;;;;;;;;4934090;29;20094;-68
2022/04/09 02:32:01;;;;;;;6.95;1.23;;;;;;;;;;4934859;29;20044;-68
2022/04/09 02:34:27;;;;;;;8.55;1.70;;;;;;;;;;4965452;28;20044;-68
2022/04/09 02:36:53;;;;;;;8.77;1.15;;;;;;;;;;4933298;29;20048;-68
2022/04/09 02:39:21;;;;;;;13.13;1.85;;;;;;;;;;4965544;28;20483;-68
2022/04/09 02:41:50;;;;;;;4.93;1.23;;;;;;;;;;4934851;29;20511;-68
2022/04/09 02:44:17;;;;;;;6.03;1.10;;;;;;;;;;4934018;29;20107;-68
2022/04/09 02:46:44;;;;;;;6.90;1.10;;;;;;;;;;4934669;29;20043;-68
2022/04/09 02:49:10;;;;;;;5.63;1.23;;;;;;;;;;4934680;29;20043;-68
2022/04/09 02:51:36;;;;;;;5.90;1.35;;;;;;;;;;4932625;29;20054;-68
2022/04/09 02:54:02;;;;;;;5.82;1.08;;;;;;;;;;4933050;29;20126;-68
2022/04/09 02:56:28;;;;;;;8.85;1.25;;;;;;;;;;4965175;28;20382;-68
2022/04/09 02:58:54;;;;;;;4.53;1.35;;;;;;;;;;4932345;29;20047;-68
2022/04/09 03:01:20;;;;;;;6.82;1.15;;;;;;;;;;4934254;29;20062;-68
2022/04/09 03:03:46;;;;;;;6.30;1.27;;;;;;;;;;4917432;29;20079;-68
2022/04/09 03:06:12;;;;;;;8.10;1.00;;;;;;;;;;4933328;29;20063;-68
2022/04/09 03:08:38;;;;;;;6.32;1.45;;;;;;;;;;4934456;29;20046;-68
2022/04/09 03:11:04;;;;;;;6.55;1.40;;;;;;;;;;4934410;29;20039;-68
2022/04/09 03:13:30;;;;;;;11.40;1.25;;;;;;;;;;4964649;28;20099;-68
2022/04/09 03:15:57;;;;;;;3.72;1.10;;;;;;;;;;4964596;28;20630;-68
2022/04/09 03:18:23;;;;;;;5.10;1.08;;;;;;;;;;4932736;29;20087;-68
2022/04/09 03:20:49;;;;;;;10.73;1.40;;;;;;;;;;4964732;28;20066;-68
2022/04/09 03:23:15;;;;;;;5.90;1.38;;;;;;;;;;4964099;28;20236;-68
2022/04/09 03:25:41;;;;;;;9.65;1.55;;;;;;;;;;4930422;29;20476;-68
2022/04/09 03:28:07;;;;;;;4.18;0.85;;;;;;;;;;4914983;29;20044;-68
2022/04/09 03:30:33;;;;;;;10.65;1.65;;;;;;;;;;4914665;29;20096;-68
2022/04/09 03:32:59;;;;;;;6.63;1.90;;;;;;;;;;4913844;29;20040;-68
2022/04/09 03:35:25;;;;;;;6.43;1.20;;;;;;;;;;4915270;29;20048;-68
2022/04/09 03:37:51;;;;;;;8.35;1.10;;;;;;;;;;4912941;29;20052;-68
2022/04/09 03:40:17;;;;;;;7.65;1.50;;;;;;;;;;4915139;29;20044;-68
2022/04/09 03:42:44;;;;;;;5.70;0.93;;;;;;;;;;4913905;29;20460;-68
2022/04/09 03:45:10;;;;;;;5.72;1.50;;;;;;;;;;4914492;29;20357;-68
2022/04/09 03:47:36;;;;;;;6.63;1.17;;;;;;;;;;4917166;29;20491;-68
2022/04/09 03:50:03;;;;;;;6.50;1.05;;;;;;;;;;4918428;29;20040;-68
2022/04/09 03:52:30;;;;;;;6.10;0.93;;;;;;;;;;4916850;29;20047;-68
2022/04/09 03:54:56;;;;;;;6.15;1.10;;;;;;;;;;4917343;29;20087;-68
2022/04/09 03:57:22;;;;;;;2.97;0.90;;;;;;;;;;4917258;29;20051;-68
2022/04/09 03:59:51;;;;;;;7.03;1.27;;;;;;;;;;4917712;29;20040;-68
2022/04/09 04:02:17;;;;;;;4.57;1.00;;;;;;;;;;4918517;29;20392;-68
2022/04/09 04:04:43;;;;;;;4.40;1.30;;;;;;;;;;4917056;29;20571;-68
2022/04/09 04:07:09;;;;;;;5.57;1.25;;;;;;;;;;4916384;29;20062;-68
2022/04/09 04:09:36;;;;;;;8.20;1.15;;;;;;;;;;4918388;29;20044;-68
2022/04/09 04:12:03;;;;;;;6.43;1.13;;;;;;;;;;4918462;29;20059;-68
2022/04/09 04:14:29;;;;;;;8.40;1.35;;;;;;;;;;4916228;29;20036;-68
2022/04/09 04:16:55;;;;;;;8.20;1.42;;;;;;;;;;4916694;29;20052;-68
2022/04/09 04:19:21;;;;;;;9.55;1.95;;;;;;;;;;4918056;29;20051;-68
2022/04/09 04:21:47;;;;;;;8.15;0.98;;;;;;;;;;4917324;29;20468;-68
2022/04/09 04:24:13;;;;;;;5.85;1.17;;;;;;;;;;4917985;29;20044;-68
2022/04/09 04:26:39;;;;;;;5.38;1.25;;;;;;;;;;4929119;29;20067;-68
2022/04/09 04:29:05;;;;;;;6.40;1.20;;;;;;;;;;4934920;29;20048;-68
2022/04/09 04:31:31;;;;;;;9.50;1.55;;;;;;;;;;4967761;28;20530;-68
2022/04/09 04:33:57;;;;;;;5.78;1.23;;;;;;;;;;4967532;28;20050;-68
2022/04/09 04:36:24;;;;;;;6.68;1.10;;;;;;;;;;4935864;29;20107;-68
2022/04/09 04:38:50;;;;;;;4.70;1.30;;;;;;;;;;4935550;29;20636;-68
2022/04/09 04:41:16;;;;;;;8.80;1.45;;;;;;;;;;4936387;29;20094;-68
2022/04/09 04:43:44;;;;;;;8.73;1.00;;;;;;;;;;4934532;29;20108;-68
2022/04/09 04:46:10;;;;;;;6.40;1.40;;;;;;;;;;4936599;29;20083;-68
2022/04/09 04:48:36;;;;;;;6.47;1.58;;;;;;;;;;4936739;29;20047;-68
2022/04/09 04:51:02;;;;;;;4.30;1.10;;;;;;;;;;4935818;29;20431;-68
2022/04/09 04:53:28;;;;;;;3.83;1.00;;;;;;;;;;4936224;29;20079;-68
2022/04/09 04:55:54;;;;;;;9.07;1.50;;;;;;;;;;4936077;29;20104;-68
2022/04/09 04:58:21;;;;;;;8.43;1.20;;;;;;;;;;4965535;28;20054;-68
2022/04/09 05:00:47;;;;;;;5.28;1.52;;;;;;;;;;4935995;29;20095;-68
2022/04/09 05:03:13;;;;;;;4.90;1.40;;;;;;;;;;4966894;28;20059;-68
2022/04/09 05:05:39;;;;;;;5.22;1.00;;;;;;;;;;4934089;29;20098;-68
2022/04/09 05:08:05;;;;;;;5.97;1.25;;;;;;;;;;4936167;29;20075;-68
2022/04/09 05:10:31;;;;;;;4.35;1.17;;;;;;;;;;4934777;29;20107;-68
2022/04/09 05:12:59;;;;;;;5.63;1.60;;;;;;;;;;4966187;28;20047;-68
2022/04/09 05:15:25;;;;;;;5.35;1.13;;;;;;;;;;4935979;29;20080;-68
2022/04/09 05:17:51;;;;;;;5.30;1.50;;;;;;;;;;4966775;28;20530;-68
2022/04/09 05:20:17;;;;;;;9.07;1.65;;;;;;;;;;4965995;28;20048;-68
2022/04/09 05:22:46;;;;;;;12.38;2.20;;;;;;;;;;4966515;28;20122;-68
2022/04/09 05:25:13;;;;;;;5.13;1.50;;;;;;;;;;4935766;29;20048;-68
2022/04/09 05:27:40;;;;;;;11.13;1.73;;;;;;;;;;4915958;29;20100;-68
2022/04/09 05:30:06;;;;;;;7.63;1.67;;;;;;;;;;4916859;29;20082;-68
2022/04/09 05:32:32;;;;;;;6.43;1.50;;;;;;;;;;4915495;29;20455;-68
2022/04/09 05:34:58;;;;;;;6.95;1.48;;;;;;;;;;4916204;29;20399;-68
2022/04/09 05:37:28;;;;;;;9.35;1.63;;;;;;;;;;4914913;29;20051;-68
2022/04/09 05:39:55;;;;;;;7.10;1.50;;;;;;;;;;4915341;29;20471;-68
2022/04/09 05:42:23;;;;;;;5.25;1.40;;;;;;;;;;4914361;29;20106;-68
2022/04/09 05:44:50;;;;;;;6.78;1.67;;;;;;;;;;4915313;29;20722;-68
2022/04/09 05:47:16;;;;;;;9.80;1.50;;;;;;;;;;4916211;29;20179;-68
2022/04/09 05:49:42;;;;;;;5.53;1.48;;;;;;;;;;4915834;29;20090;-68
2022/04/09 05:52:08;;;;;;;10.60;1.55;;;;;;;;;;4916648;29;20072;-68
2022/04/09 05:54:34;;;;;;;8.70;1.20;;;;;;;;;;4916304;29;20498;-68
2022/04/09 05:57:01;;;;;;;7.60;1.30;;;;;;;;;;4914440;29;20476;-68
2022/04/09 05:59:28;;;;;;;7.97;1.20;;;;;;;;;;4914925;29;20082;-68
2022/04/09 06:01:54;;;;;;;8.63;1.38;;;;;;;;;;4914611;29;20064;-68
2022/04/09 06:04:20;;;;;;;5.35;1.30;;;;;;;;;;4914566;29;20479;-68
2022/04/09 06:06:46;;;;;;;12.60;1.77;;;;;;;;;;4916137;29;20091;-68
2022/04/09 06:09:13;;;;;;;8.60;1.42;;;;;;;;;;4916250;29;20040;-68
2022/04/09 06:11:39;;;;;;;4.90;1.70;;;;;;;;;;4914804;29;20040;-68
2022/04/09 06:14:05;;;;;;;9.55;1.63;;;;;;;;;;4916134;29;20143;-68
2022/04/09 06:16:31;;;;;;;4.78;1.08;;;;;;;;;;4914494;29;20052;-68
2022/04/09 06:18:57;;;;;;;8.70;1.42;;;;;;;;;;4915245;29;20460;-68
2022/04/09 06:21:23;;;;;;;6.55;1.20;;;;;;;;;;4915965;29;20043;-68
2022/04/09 06:23:50;;;;;;;12.93;1.60;;;;;;;;;;4915735;29;20046;-68
2022/04/09 06:26:16;;;;;;;8.13;1.38;;;;;;;;;;4922094;29;20497;-68
2022/04/09 06:28:42;;;;;;;12.07;1.83;;;;;;;;;;4965394;28;20059;-68
2022/04/09 06:31:08;;;;;;;9.40;1.58;;;;;;;;;;4965384;28;20126;-68
2022/04/09 06:33:34;;;;;;;11.15;1.75;;;;;;;;;;4964562;28;20043;-68
2022/04/09 06:36:00;;;;;;;7.55;1.30;;;;;;;;;;4965363;28;20055;-68
2022/04/09 06:38:27;;;;;;;11.43;1.70;;;;;;;;;;4965078;28;20044;-68
2022/04/09 06:40:53;;;;;;;13.50;2.25;;;;;;;;;;4934154;29;20050;-68
2022/04/09 06:43:19;;;;;;;6.30;1.45;;;;;;;;;;4934507;29;20416;-68
2022/04/09 06:45:45;;;;;;;5.55;1.50;;;;;;;;;;4965211;28;20142;-68
2022/04/09 06:48:11;;;;;;;10.00;1.55;;;;;;;;;;4964447;28;20051;-68
2022/04/09 06:50:37;;;;;;;7.35;1.30;;;;;;;;;;4934546;29;20039;-68
2022/04/09 06:53:03;;;;;;;11.30;2.03;;;;;;;;;;4934097;29;20127;-68
2022/04/09 06:55:29;;;;;;;14.43;2.67;;;;;;;;;;4933928;29;20059;-68
2022/04/09 06:58:00;;;;;;;14.10;1.90;;;;;;;;;;4964562;28;20083;-68
2022/04/09 07:00:26;;;;;;;8.77;1.60;;;;;;;;;;4934229;29;20115;-68
2022/04/09 07:02:52;;;;;;;11.13;2.80;;;;;;;;;;4948977;28;20470;-68
2022/04/09 07:05:18;;;;;;;9.90;1.45;;;;;;;;;;4933544;29;20100;-68
2022/04/09 07:07:51;;;;;;;8.18;1.40;;;;;;;;;;4964816;28;20040;-68
2022/04/09 07:10:17;;;;;;;9.63;1.70;;;;;;;;;;4965100;28;20098;-68
2022/04/09 07:12:43;;;;;;;6.68;1.13;;;;;;;;;;4933672;29;20043;-68
2022/04/09 07:15:10;;;;;;;4.53;1.95;;;;;;;;;;4934173;29;20043;-68
2022/04/09 07:17:37;;;;;;;5.85;1.15;;;;;;;;;;4933892;29;20051;-68
2022/04/09 07:20:05;;;;;;;3.90;1.00;;;;;;;;;;4933478;29;20048;-68
2022/04/09 07:22:31;;;;;;;8.95;1.58;;;;;;;;;;4966759;28;20051;-68
2022/04/09 07:24:57;;;;;;;6.53;1.30;;;;;;;;;;4936356;29;20066;-68
2022/04/09 07:27:44;;;;;;;8.30;1.20;;;;;;;;;;4918839;29;20040;-68
2022/04/09 07:30:13;;;;;;;7.28;1.40;;;;;;;;;;4918712;29;20135;-68
2022/04/09 07:32:40;;;;;;;8.63;1.20;;;;;;;;;;4918407;29;20048;-68
2022/04/09 07:35:07;;;;;;;7.10;1.40;;;;;;;;;;4919046;29;20056;-68
2022/04/09 07:37:33;;;;;;;6.90;1.40;;;;;;;;;;4917541;29;20047;-68
2022/04/09 07:39:59;;;;;;;11.90;1.70;;;;;;;;;;4916931;29;20048;-68
2022/04/09 07:42:25;;;;;;;8.23;1.92;;;;;;;;;;4918510;29;20515;-68
2022/04/09 07:44:52;;;;;;;10.25;2.03;;;;;;;;;;4917246;29;20044;-68
2022/04/09 07:47:19;;;;;;;9.15;1.90;;;;;;;;;;4917215;29;20063;-69
2022/04/09 07:49:46;;;;;;;9.10;1.65;;;;;;;;;;4917213;29;20100;-68
2022/04/09 07:52:13;;;;;;;12.75;1.48;;;;;;;;;;4917556;29;20050;-68
2022/04/09 07:54:39;;;;;;;8.23;1.55;;;;;;;;;;4917272;29;20043;-68
2022/04/09 07:57:05;;;;;;;9.02;1.65;;;;;;;;;;4917943;29;20032;-68
2022/04/09 07:59:31;;;;;;;10.75;1.48;;;;;;;;;;4918568;29;20036;-68
2022/04/09 08:01:57;;;;;;;12.05;1.67;;;;;;;;;;4918149;29;20108;-68
2022/04/09 08:04:23;;;;;;;7.35;1.88;;;;;;;;;;4916346;29;20044;-68
2022/04/09 08:06:49;;;;;;;11.05;1.75;;;;;;;;;;4917976;29;20044;-68
2022/04/09 08:09:15;;;;;;;12.32;1.67;;;;;;;;;;4916836;29;20079;-68
2022/04/09 08:11:41;;;;;;;8.35;1.35;;;;;;;;;;4916295;29;20482;-68
2022/04/09 08:14:07;;;;;;;4.43;1.10;;;;;;;;;;4917001;29;20048;-68
2022/04/09 08:16:33;;;;;;;7.43;1.58;;;;;;;;;;4916909;29;20044;-68
2022/04/09 08:19:01;;;;;;;7.38;1.77;;;;;;;;;;4917621;29;20062;-68
2022/04/09 08:21:27;;;;;;;7.00;1.50;;;;;;;;;;4918303;29;20044;-68
2022/04/09 08:23:53;;;;;;;7.55;1.58;;;;;;;;;;4917929;29;20043;-68
2022/04/09 08:26:19;;;;;;;10.38;1.40;;;;;;;;;;4924400;29;20410;-68
2022/04/09 08:28:45;;;;;;;4.63;0.82;;;;;;;;;;4935543;29;20048;-68
2022/04/09 08:31:12;;;;;;;7.82;1.35;;;;;;;;;;4936719;29;20035;-68
2022/04/09 08:33:40;;;;;;;7.13;1.60;;;;;;;;;;4935122;29;20155;-68
2022/04/09 08:36:06;;;;;;;8.68;1.10;;;;;;;;;;4936896;29;20048;-68
2022/04/09 08:38:32;;;;;;;6.93;1.48;;;;;;;;;;4936404;29;20187;-68
2022/04/09 08:41:03;;;;;;;5.05;1.15;;;;;;;;;;4966826;28;20138;-68
2022/04/09 08:43:29;;;;;;;6.78;1.08;;;;;;;;;;4935064;29;20048;-68
2022/04/09 08:45:55;;;;;;;6.20;1.40;;;;;;;;;;4936131;29;20658;-68
2022/04/09 08:48:21;;;;;;;5.15;1.02;;;;;;;;;;4935717;29;20042;-68
2022/04/09 08:50:48;;;;;;;7.20;1.33;;;;;;;;;;4936299;29;20122;-68
2022/04/09 08:53:14;;;;;;;5.75;1.02;;;;;;;;;;4936587;29;20123;-68
2022/04/09 08:55:45;;;;;;;5.22;1.25;;;;;;;;;;4934594;29;20091;-68
2022/04/09 08:58:11;;;;;;;6.28;1.30;;;;;;;;;;4934753;29;20056;-68
2022/04/09 09:00:37;;;;;;;4.47;1.20;;;;;;;;;;4966884;28;20056;-68
2022/04/09 09:03:05;;;;;;;9.43;1.17;;;;;;;;;;4935784;29;20039;-67
2022/04/09 09:05:35;;;;;;;5.53;1.05;;;;;;;;;;4936233;29;20063;-68
2022/04/09 09:08:02;;;;;;;8.52;1.25;;;;;;;;;;4966904;28;20546;-68
2022/04/09 09:10:28;;;;;;;10.80;1.65;;;;;;;;;;4935698;29;20044;-68
2022/04/09 09:13:05;;;;;;;6.72;1.00;;;;;;;;;;4936237;29;20490;-68
2022/04/09 09:15:44;;;;;;;5.80;1.83;;;;;;;;;;4966554;28;20063;-68
2022/04/09 09:18:17;;;;;;;4.28;1.00;;;;;;;;;;4934168;29;20139;-68
2022/04/09 09:20:48;;;;;;;7.40;1.40;;;;;;;;;;4934591;29;20546;-68
2022/04/09 09:23:27;;;;;;;5.15;1.17;;;;;;;;;;4935648;29;20107;-68
2022/04/09 09:25:54;;;;;;;5.88;1.70;;;;;;;;;;4929586;29;20052;-68
2022/04/09 09:28:24;;;;;;;5.45;1.10;;;;;;;;;;4916825;29;20451;-68
2022/04/09 09:30:51;;;;;;;8.82;1.55;;;;;;;;;;4916972;29;20047;-68
2022/04/09 09:33:17;;;;;;;8.55;1.02;;;;;;;;;;4914807;29;20039;-68
2022/04/09 09:36:02;;;;;;;4.70;1.08;;;;;;;;;;4915522;29;20523;-68
2022/04/09 09:38:29;;;;;;;3.63;0.90;;;;;;;;;;4915746;29;20047;-68
2022/04/09 09:40:55;;;;;;;5.72;1.13;;;;;;;;;;4915103;29;20096;-68
2022/04/09 09:43:22;;;;;;;9.70;1.60;;;;;;;;;;4916676;29;20048;-68
2022/04/09 09:45:49;;;;;;;8.57;1.10;;;;;;;;;;4915673;29;20472;-68
2022/04/09 09:48:22;;;;;;;4.70;1.10;;;;;;;;;;4915319;29;20119;-68
2022/04/09 09:50:48;;;;;;;5.88;0.98;;;;;;;;;;4915050;29;20533;-68
2022/04/09 09:53:14;;;;;;;2.63;0.60;;;;;;;;;;4915729;29;20036;-68
2022/04/09 09:55:44;;;;;;;5.30;1.05;;;;;;;;;;4916336;29;20058;-68
2022/04/09 09:58:16;;;;;;;6.80;1.60;;;;;;;;;;4916201;29;20052;-68
2022/04/09 10:00:46;;;;;;;8.43;1.67;;;;;;;;;;4914093;29;20072;-68
2022/04/09 10:03:13;;;;;;;10.45;1.70;;;;;;;;;;4916237;29;20063;-68
2022/04/09 10:05:40;;;;;;;9.02;1.30;;;;;;;;;;4914683;29;20059;-68
2022/04/09 10:08:06;;;;;;;9.23;1.02;;;;;;;;;;4915252;29;20043;-68
2022/04/09 10:10:35;;;;;;;7.88;1.10;;;;;;;;;;4916172;29;20079;-68
2022/04/09 10:13:02;;;;;;;6.90;1.27;;;;;;;;;;4915923;29;20071;-68
2022/04/09 10:15:29;;;;;;;8.70;1.20;;;;;;;;;;4915109;29;20048;-68
2022/04/09 10:17:58;;;;;;;3.97;1.00;;;;;;;;;;4915630;29;20052;-68
2022/04/09 10:20:25;;;;;;;4.30;0.90;;;;;;;;;;4898638;29;20084;-68
2022/04/09 10:22:53;;;;;;;4.65;1.10;;;;;;;;;;4915119;29;20046;-68
2022/04/09 10:25:20;;;;;;;7.60;1.00;;;;;;;;;;4915143;29;20104;-68
2022/04/09 10:27:52;;;;;;;4.43;0.98;;;;;;;;;;4934682;29;20058;-68
2022/04/09 10:30:22;;;;;;;5.35;1.02;;;;;;;;;;4934290;29;20119;-68
2022/04/09 10:32:48;;;;;;;5.10;1.08;;;;;;;;;;4934804;29;20122;-68
2022/04/09 10:35:28;;;;;;;7.30;1.02;;;;;;;;;;4933473;29;20057;-68
2022/04/09 10:38:10;;;;;;;5.85;1.13;;;;;;;;;;4964521;28;20471;-68
2022/04/09 10:40:57;;;;;;;5.50;1.30;;;;;;;;;;4965197;28;20055;-68
2022/04/09 10:43:26;;;;;;;7.28;1.20;;;;;;;;;;4965166;28;20134;-68
2022/04/09 10:46:05;;;;;;;4.75;1.08;;;;;;;;;;4964513;28;20191;-68
2022/04/09 10:48:35;;;;;;;7.72;1.10;;;;;;;;;;4933126;29;20110;-68
2022/04/09 10:51:04;;;;;;;2.90;1.08;;;;;;;;;;4934513;29;20093;-68
2022/04/09 10:53:33;;;;;;;8.90;1.40;;;;;;;;;;4932466;29;20044;-68
2022/04/09 10:56:20;;;;;;;5.88;1.17;;;;;;;;;;4934203;29;20055;-68
2022/04/09 10:59:05;;;;;;;3.80;0.68;;;;;;;;;;4964833;28;20451;-68
2022/04/09 11:01:46;;;;;;;7.20;1.00;;;;;;;;;;4964348;28;20051;-68
2022/04/09 11:04:37;;;;;;;5.43;0.85;;;;;;;;;;4933304;29;20052;-68
2022/04/09 11:07:03;;;;;;;7.03;1.00;;;;;;;;;;4964816;28;20043;-68
2022/04/09 11:09:54;;;;;;;2.20;0.50;;;;;;;;;;4933396;29;20468;-68
2022/04/09 11:12:21;;;;;;;3.60;0.60;;;;;;;;;;4934096;29;20098;-68
2022/04/09 11:14:52;;;;;;;3.05;0.85;;;;;;;;;;4932110;29;20152;-68
2022/04/09 11:17:19;;;;;;;5.00;0.80;;;;;;;;;;4933644;29;20043;-68
2022/04/09 11:19:46;;;;;;;2.20;0.50;;;;;;;;;;4964763;28;20426;-68
2022/04/09 11:22:12;;;;;;;4.28;0.60;;;;;;;;;;4933251;29;20063;-68
2022/04/09 11:24:38;;;;;;;5.72;0.70;;;;;;;;;;4965194;28;20054;-68
2022/04/09 11:27:04;;;;;;;8.05;1.15;;;;;;;;;;4919272;29;20044;-68
2022/04/09 11:29:37;;;;;;;6.40;1.13;;;;;;;;;;4914604;29;20048;-68
2022/04/09 11:32:04;;;;;;;6.20;1.10;;;;;;;;;;4913615;29;20044;-68
2022/04/09 11:34:49;;;;;;;6.30;1.05;;;;;;;;;;4915250;29;20051;-69
2022/04/09 11:37:15;;;;;;;8.90;1.20;;;;;;;;;;4912855;29;20435;-68
2022/04/09 11:39:41;;;;;;;6.45;1.55;;;;;;;;;;4915200;29;20040;-68
2022/04/09 11:42:08;;;;;;;5.30;1.33;;;;;;;;;;4913626;29;20410;-68
2022/04/09 11:44:35;;;;;;;11.02;1.83;;;;;;;;;;4913222;29;20056;-68
2022/04/09 11:47:09;;;;;;;8.55;1.45;;;;;;;;;;4914684;29;20059;-68
2022/04/09 11:49:35;;;;;;;9.65;1.50;;;;;;;;;;4915047;29;20046;-68
2022/04/09 11:52:01;;;;;;;10.07;1.40;;;;;;;;;;4914399;29;20043;-68
2022/04/09 11:54:31;;;;;;;11.50;1.60;;;;;;;;;;4914765;29;20047;-68
2022/04/09 11:56:57;;;;;;;10.20;1.17;;;;;;;;;;4914865;29;20048;-68
2022/04/09 11:59:23;;;;;;;7.53;1.38;;;;;;;;;;4914501;29;20052;-68
2022/04/09 12:01:52;;;;;;;6.10;1.13;;;;;;;;;;4914532;29;20411;-68
2022/04/09 12:04:22;;;;;;;8.30;1.08;;;;;;;;;;4914863;29;20084;-68
2022/04/09 12:06:49;;;;;;;8.73;1.17;;;;;;;;;;4912645;29;20137;-68
2022/04/09 12:09:15;;;;;;;6.65;1.15;;;;;;;;;;4917678;29;20062;-68
2022/04/09 12:11:51;;;;;;;7.28;1.05;;;;;;;;;;4916890;29;20083;-68
2022/04/09 12:14:20;;;;;;;5.50;1.48;;;;;;;;;;4917435;29;20070;-68
2022/04/09 12:16:46;;;;;;;5.18;1.08;;;;;;;;;;4918241;29;20131;-68
2022/04/09 12:19:13;;;;;;;7.75;1.58;;;;;;;;;;4917962;29;20066;-68
2022/04/09 12:21:39;;;;;;;5.28;1.02;;;;;;;;;;4916215;29;20044;-68
2022/04/09 12:24:09;;;;;;;6.53;1.10;;;;;;;;;;4916912;29;20044;-68
2022/04/09 12:26:42;;;;;;;4.70;0.82;;;;;;;;;;4928450;29;20052;-68
2022/04/09 12:29:22;;;;;;;3.55;0.73;;;;;;;;;;4936227;29;20048;-68
2022/04/09 12:31:51;;;;;;;6.53;0.75;;;;;;;;;;4936919;29;20122;-68
2022/04/09 12:34:17;;;;;;;4.75;0.70;;;;;;;;;;4967859;28;20044;-68
2022/04/09 12:37:00;;;;;;;3.38;0.65;;;;;;;;;;4934566;29;20043;-68
2022/04/09 12:39:27;;;;;;;5.95;1.35;;;;;;;;;;4935483;29;20134;-68
2022/04/09 12:41:53;;;;;;;3.25;0.55;;;;;;;;;;4967193;28;20054;-68
2022/04/09 12:44:32;;;;;;;4.57;1.05;;;;;;;;;;4935997;29;20119;-68
2022/04/09 12:46:59;;;;;;;2.47;0.57;;;;;;;;;;4936504;29;20066;-68
2022/04/09 12:49:25;;;;;;;1.55;0.70;;;;;;;;;;4936689;29;20072;-68
2022/04/09 12:51:52;;;;;;;3.83;0.43;;;;;;;;;;4936026;29;20066;-68
2022/04/09 12:54:18;;;;;;;2.80;0.70;;;;;;;;;;4936674;29;20126;-69
2022/04/09 12:56:45;;;;;;;3.83;0.63;;;;;;;;;;4936536;29;20050;-69
2022/04/09 12:59:11;;;;;;;4.20;0.93;;;;;;;;;;4935886;29;20050;-69
2022/04/09 13:01:37;;;;;;;2.58;0.70;;;;;;;;;;4935998;29;20502;-68
2022/04/09 13:04:03;;;;;;;1.15;0.50;;;;;;;;;;4967244;28;20051;-68
2022/04/09 13:06:29;;;;;;;4.55;0.70;;;;;;;;;;4935663;29;20039;-68
2022/04/09 13:08:55;;;;;;;2.78;0.50;;;;;;;;;;4967193;28;20047;-68
2022/04/09 13:11:21;;;;;;;5.03;0.80;;;;;;;;;;4936414;29;20032;-68
2022/04/09 13:13:47;;;;;;;2.95;0.85;;;;;;;;;;4966224;28;20040;-68
2022/04/09 13:16:13;;;;;;;5.10;0.70;;;;;;;;;;4936223;29;20123;-68
2022/04/09 13:18:41;;;;;;;3.42;0.60;;;;;;;;;;4966834;28;20059;-68
2022/04/09 13:21:07;;;;;;;6.38;0.93;;;;;;;;;;4965778;28;20079;-68
2022/04/09 13:23:35;;;;;;;5.35;1.02;;;;;;;;;;4966650;28;20070;-68
2022/04/09 13:26:01;;;;;;;8.23;1.45;;;;;;;;;;4929696;29;20048;-68
2022/04/09 13:28:29;;;;;;;4.15;0.80;;;;;;;;;;4916309;29;20096;-68
2022/04/09 13:30:55;;;;;;;5.10;0.90;;;;;;;;;;4916720;29;20044;-68
2022/04/09 13:33:21;;;;;;;6.63;1.30;;;;;;;;;;4916961;29;20877;-68
2022/04/09 13:35:47;;;;;;;6.82;1.23;;;;;;;;;;4916378;29;20076;-68
2022/04/09 13:38:14;;;;;;;3.53;1.00;;;;;;;;;;4916717;29;20052;-68
2022/04/09 13:40:42;;;;;;;6.55;0.88;;;;;;;;;;4915458;29;20052;-68
2022/04/09 13:43:08;;;;;;;2.67;0.82;;;;;;;;;;4914537;29;20095;-68
2022/04/09 13:45:34;;;;;;;5.55;0.90;;;;;;;;;;4914986;29;20063;-68
2022/04/09 13:48:00;;;;;;;6.70;1.00;;;;;;;;;;4915121;29;20040;-68
2022/04/09 13:50:26;;;;;;;6.10;1.08;;;;;;;;;;4915797;29;20040;-68
2022/04/09 13:52:52;;;;;;;4.35;0.77;;;;;;;;;;4915279;29;20088;-68
2022/04/09 13:55:18;;;;;;;3.92;0.65;;;;;;;;;;4916460;29;20044;-68
2022/04/09 13:57:44;;;;;;;1.23;0.52;;;;;;;;;;4914271;29;20063;-68
2022/04/09 14:00:11;;;;;;;2.83;0.50;;;;;;;;;;4916150;29;20056;-68
2022/04/09 14:02:37;;;;;;;2.38;0.52;;;;;;;;;;4914885;29;20447;-68
2022/04/09 14:05:05;;;;;;;3.85;0.52;;;;;;;;;;4915493;29;20048;-68
2022/04/09 14:07:32;;;;;;;1.25;0.32;;;;;;;;;;4914921;29;20503;-68
2022/04/09 14:09:58;;;;;;;1.58;0.43;;;;;;;;;;4915108;29;20056;-68
2022/04/09 14:12:24;;;;;;;2.70;0.60;;;;;;;;;;4915604;29;20044;-68
2022/04/09 14:14:50;;;;;;;3.55;0.60;;;;;;;;;;4915941;29;20096;-69
2022/04/09 14:17:16;;;;;;;2.42;0.60;;;;;;;;;;4914472;29;20057;-68
2022/04/09 14:19:42;;;;;;;2.75;0.80;;;;;;;;;;4914070;29;20044;-68
2022/04/09 14:22:09;;;;;;;2.88;0.70;;;;;;;;;;4916074;29;20063;-68
2022/04/09 14:24:35;;;;;;;3.88;0.75;;;;;;;;;;4916086;29;20052;-68
2022/04/09 14:27:01;;;;;;;3.88;0.60;;;;;;;;;;4928734;29;20052;-68
2022/04/09 14:29:27;;;;;;;3.20;0.75;;;;;;;;;;4965583;28;20126;-68
2022/04/09 14:31:53;;;;;;;3.15;0.73;;;;;;;;;;4964520;28;20043;-68
2022/04/09 14:34:19;;;;;;;4.03;0.80;;;;;;;;;;4933285;29;20127;-68
2022/04/09 14:36:46;;;;;;;1.63;0.40;;;;;;;;;;4948687;29;20054;-68
2022/04/09 14:39:12;;;;;;;2.47;0.80;;;;;;;;;;4934725;29;20062;-68
2022/04/09 14:41:39;;;;;;;1.60;0.50;;;;;;;;;;4934470;29;20044;-68